TimeEST,TemperatureF,Dew PointF,Humidity,Sea Level PressureIn,VisibilityMPH,Wind Direction,Wind SpeedMPH,Gust SpeedMPH,PrecipitationIn,Events,Conditions,WindDirDegrees,DateUTC
12:56 AM,46.0,36.0,68,30.34,10.0,NE,9.2,-,N/A,,Clear,40,2013-01-08 05:56:00
1:56 AM,46.0,37.0,71,30.32,10.0,NE,8.1,-,N/A,,Clear,50,2013-01-08 06:56:00
2:56 AM,46.0,37.9,73,30.31,10.0,NE,9.2,-,N/A,,Clear,50,2013-01-08 07:56:00
3:56 AM,45.0,39.0,80,30.30,10.0,NE,8.1,-,N/A,,Clear,50,2013-01-08 08:56:00
4:56 AM,45.0,39.0,80,30.30,10.0,NE,10.4,-,N/A,,Clear,50,2013-01-08 09:56:00
5:56 AM,45.0,39.0,80,30.32,10.0,NE,11.5,-,N/A,,Clear,50,2013-01-08 10:56:00
6:56 AM,45.0,37.9,76,30.34,10.0,NE,8.1,-,N/A,,Scattered Clouds,50,2013-01-08 11:56:00
7:56 AM,45.0,37.9,76,30.36,10.0,NE,9.2,-,N/A,,Mostly Cloudy,50,2013-01-08 12:56:00
8:56 AM,48.9,39.0,69,30.36,10.0,ENE,6.9,-,N/A,,Mostly Cloudy,60,2013-01-08 13:56:00
9:56 AM,51.1,41.0,68,30.39,10.0,NE,5.8,-,N/A,,Overcast,40,2013-01-08 14:56:00
10:56 AM,55.0,43.0,64,30.38,10.0,NE,6.9,-,N/A,,Mostly Cloudy,50,2013-01-08 15:56:00
11:56 AM,59.0,45.0,60,30.36,10.0,NE,6.9,-,N/A,,Mostly Cloudy,50,2013-01-08 16:56:00
12:56 PM,62.1,46.9,58,30.33,10.0,ENE,5.8,-,N/A,,Mostly Cloudy,60,2013-01-08 17:56:00
1:56 PM,64.0,48.9,58,30.32,10.0,ENE,3.5,-,N/A,,Mostly Cloudy,70,2013-01-08 18:56:00
2:56 PM,66.0,50.0,56,30.32,10.0,Calm,Calm,-,N/A,,Mostly Cloudy,0,2013-01-08 19:56:00
3:56 PM,66.0,51.1,59,30.30,10.0,NE,3.5,-,N/A,,Mostly Cloudy,50,2013-01-08 20:56:00
4:56 PM,64.9,52.0,63,30.30,10.0,East,3.5,-,N/A,,Overcast,90,2013-01-08 21:56:00
5:56 PM,57.9,50.0,75,30.31,10.0,NE,4.6,-,N/A,,Scattered Clouds,40,2013-01-08 22:56:00
6:56 PM,55.0,50.0,83,30.32,10.0,Calm,Calm,-,N/A,,Clear,0,2013-01-08 23:56:00
7:56 PM,54.0,51.1,90,30.34,10.0,NNE,3.5,-,N/A,,Clear,30,2013-01-09 00:56:00
8:56 PM,53.1,48.9,86,30.34,10.0,NNE,4.6,-,N/A,,Clear,20,2013-01-09 01:56:00
9:56 PM,54.0,48.9,83,30.34,10.0,North,5.8,-,N/A,,Clear,10,2013-01-09 02:56:00
10:56 PM,51.1,48.0,89,30.35,10.0,NE,6.9,-,N/A,,Clear,40,2013-01-09 03:56:00
11:56 PM,52.0,48.9,89,30.34,10.0,NE,5.8,-,N/A,,Partly Cloudy,40,2013-01-09 04:56:00